KARW

Beaufort County Airport

Beaufort, South Carolina, USA
METAR KARW 181955Z AUTO 24004KT 7SM OVC008 20/17 A3014 RMK AO2
Observed Flight Rules
Dec-18 @ 19:55 UTC (20 minutes ago) Instrument Flight Rules
Wind Visibility Clouds
240° at 4 knots 7 miles
  • Overcast at 800' AGL
Temperatures Readings
Current 20°C / 68°F
Dewpoint 17°C / 63°F
Humidity 83%
Altimeter 30.14" Hg
Pressure 1021 hPa
Elevation 4
METAR KARW 181955Z AUTO 24004KT 7SM OVC008 20/17 A3014 RMK AO2
Observed Flight Rules
Dec-18 @ 19:55 UTC
(20 minutes ago)
IFR
Wind Visibility
240° at 4 knots 7 miles
Clouds
  • Overcast at 800' AGL
Temperature Dewpoint
20°C / 68°F 17°C / 63°F
Humidity Altimeter Pressure
83% 30.14" Hg 1021 hPa